sensor_id;sensor_type;location;lat;lon;timestamp;P1;durP1;ratioP1;P2;durP2;ratioP2
54983;SDS011;40884;53.562;9.940;2023-06-19T00:00:11;5.43;;;4.93;;
54983;SDS011;40884;53.562;9.940;2023-06-19T00:01:12;6.87;;;5.30;;
54983;SDS011;40884;53.562;9.940;2023-06-19T00:02:12;5.57;;;4.93;;
54983;SDS011;40884;53.562;9.940;2023-06-19T00:03:13;5.50;;;4.73;;
54983;SDS011;40884;53.562;9.940;2023-06-19T00:04:13;6.73;;;5.43;;
54983;SDS011;40884;53.562;9.940;2023-06-19T00:05:13;5.73;;;5.00;;
54983;SDS011;40884;53.562;9.940;2023-06-19T00:06:13;6.03;;;4.90;;
54983;SDS011;40884;53.562;9.940;2023-06-19T00:07:13;6.07;;;5.30;;
54983;SDS011;40884;53.562;9.940;2023-06-19T00:08:13;6.50;;;5.40;;
54983;SDS011;40884;53.562;9.940;2023-06-19T00:09:14;6.40;;;5.63;;
54983;SDS011;40884;53.562;9.940;2023-06-19T00:10:14;5.77;;;5.27;;
54983;SDS011;40884;53.562;9.940;2023-06-19T00:11:14;5.50;;;5.00;;
54983;SDS011;40884;53.562;9.940;2023-06-19T00:12:14;6.10;;;5.50;;
54983;SDS011;40884;53.562;9.940;2023-06-19T00:13:15;5.80;;;5.17;;
54983;SDS011;40884;53.562;9.940;2023-06-19T00:14:15;6.37;;;5.33;;
54983;SDS011;40884;53.562;9.940;2023-06-19T00:15:15;6.27;;;5.60;;
54983;SDS011;40884;53.562;9.940;2023-06-19T00:16:15;6.13;;;5.27;;
54983;SDS011;40884;53.562;9.940;2023-06-19T00:17:15;6.63;;;5.10;;
54983;SDS011;40884;53.562;9.940;2023-06-19T00:18:15;7.27;;;5.10;;
54983;SDS011;40884;53.562;9.940;2023-06-19T00:19:15;5.53;;;5.03;;
54983;SDS011;40884;53.562;9.940;2023-06-19T00:20:15;6.10;;;5.47;;
54983;SDS011;40884;53.562;9.940;2023-06-19T00:21:15;6.27;;;5.40;;
54983;SDS011;40884;53.562;9.940;2023-06-19T00:22:16;5.63;;;5.13;;
54983;SDS011;40884;53.562;9.940;2023-06-19T00:23:16;6.10;;;5.50;;
54983;SDS011;40884;53.562;9.940;2023-06-19T00:24:16;6.10;;;4.93;;
54983;SDS011;40884;53.562;9.940;2023-06-19T00:25:16;5.97;;;4.80;;
54983;SDS011;40884;53.562;9.940;2023-06-19T00:26:16;5.63;;;5.17;;
54983;SDS011;40884;53.562;9.940;2023-06-19T00:27:16;5.80;;;5.20;;
54983;SDS011;40884;53.562;9.940;2023-06-19T00:28:16;5.93;;;5.33;;
54983;SDS011;40884;53.562;9.940;2023-06-19T00:29:17;5.77;;;5.27;;
54983;SDS011;40884;53.562;9.940;2023-06-19T00:30:17;5.77;;;5.10;;
54983;SDS011;40884;53.562;9.940;2023-06-19T00:31:17;5.90;;;5.30;;
54983;SDS011;40884;53.562;9.940;2023-06-19T00:32:17;6.50;;;5.00;;
54983;SDS011;40884;53.562;9.940;2023-06-19T00:33:17;5.87;;;5.23;;
54983;SDS011;40884;53.562;9.940;2023-06-19T00:34:18;6.60;;;5.50;;
54983;SDS011;40884;53.562;9.940;2023-06-19T00:35:18;5.90;;;5.40;;
54983;SDS011;40884;53.562;9.940;2023-06-19T00:36:19;5.40;;;4.90;;
54983;SDS011;40884;53.562;9.940;2023-06-19T00:37:19;5.97;;;5.47;;
54983;SDS011;40884;53.562;9.940;2023-06-19T00:38:19;8.10;;;5.93;;
54983;SDS011;40884;53.562;9.940;2023-06-19T00:39:19;6.37;;;5.67;;
54983;SDS011;40884;53.562;9.940;2023-06-19T00:40:21;6.00;;;5.50;;
54983;SDS011;40884;53.562;9.940;2023-06-19T00:41:25;5.87;;;5.03;;
54983;SDS011;40884;53.562;9.940;2023-06-19T00:42:26;10.90;;;5.77;;
54983;SDS011;40884;53.562;9.940;2023-06-19T00:43:26;7.10;;;5.40;;
54983;SDS011;40884;53.562;9.940;2023-06-19T00:44:26;6.13;;;5.63;;
54983;SDS011;40884;53.562;9.940;2023-06-19T00:45:26;7.10;;;5.60;;
54983;SDS011;40884;53.562;9.940;2023-06-19T00:46:26;9.67;;;5.60;;
54983;SDS011;40884;53.562;9.940;2023-06-19T00:47:28;7.83;;;5.63;;
54983;SDS011;40884;53.562;9.940;2023-06-19T00:48:30;5.70;;;5.20;;
54983;SDS011;40884;53.562;9.940;2023-06-19T00:49:30;6.30;;;5.40;;
54983;SDS011;40884;53.562;9.940;2023-06-19T00:50:31;5.70;;;5.20;;
54983;SDS011;40884;53.562;9.940;2023-06-19T00:51:31;6.40;;;5.80;;
54983;SDS011;40884;53.562;9.940;2023-06-19T00:52:31;6.10;;;5.50;;
54983;SDS011;40884;53.562;9.940;2023-06-19T00:53:32;7.93;;;5.57;;
54983;SDS011;40884;53.562;9.940;2023-06-19T00:54:32;6.03;;;5.50;;
54983;SDS011;40884;53.562;9.940;2023-06-19T00:55:34;6.43;;;5.60;;
54983;SDS011;40884;53.562;9.940;2023-06-19T00:56:35;5.87;;;5.37;;
54983;SDS011;40884;53.562;9.940;2023-06-19T00:57:37;6.30;;;5.70;;
54983;SDS011;40884;53.562;9.940;2023-06-19T00:58:37;6.77;;;5.73;;
54983;SDS011;40884;53.562;9.940;2023-06-19T00:59:37;6.13;;;5.63;;
54983;SDS011;40884;53.562;9.940;2023-06-19T01:00:37;6.50;;;5.43;;
54983;SDS011;40884;53.562;9.940;2023-06-19T01:01:37;7.73;;;5.73;;
54983;SDS011;40884;53.562;9.940;2023-06-19T01:02:38;6.33;;;5.73;;
54983;SDS011;40884;53.562;9.940;2023-06-19T01:03:38;5.93;;;5.50;;
54983;SDS011;40884;53.562;9.940;2023-06-19T01:04:38;6.47;;;5.87;;
54983;SDS011;40884;53.562;9.940;2023-06-19T01:05:38;6.57;;;5.50;;
54983;SDS011;40884;53.562;9.940;2023-06-19T01:07:02;6.37;;;5.83;;
54983;SDS011;40884;53.562;9.940;2023-06-19T01:08:00;7.57;;;6.00;;
54983;SDS011;40884;53.562;9.940;2023-06-19T01:09:04;6.70;;;5.77;;
54983;SDS011;40884;53.562;9.940;2023-06-19T01:10:06;7.50;;;5.83;;
54983;SDS011;40884;53.562;9.940;2023-06-19T01:11:08;7.30;;;5.90;;
54983;SDS011;40884;53.562;9.940;2023-06-19T01:12:15;5.93;;;5.43;;
54983;SDS011;40884;53.562;9.940;2023-06-19T01:14:30;6.40;;;5.90;;
54983;SDS011;40884;53.562;9.940;2023-06-19T01:15:35;6.00;;;5.47;;
54983;SDS011;40884;53.562;9.940;2023-06-19T01:16:35;6.40;;;5.87;;
54983;SDS011;40884;53.562;9.940;2023-06-19T01:17:36;6.30;;;5.70;;
54983;SDS011;40884;53.562;9.940;2023-06-19T01:18:36;7.73;;;5.53;;
54983;SDS011;40884;53.562;9.940;2023-06-19T01:19:36;7.87;;;5.93;;
54983;SDS011;40884;53.562;9.940;2023-06-19T01:20:37;6.70;;;6.00;;
54983;SDS011;40884;53.562;9.940;2023-06-19T01:21:37;8.93;;;6.00;;
54983;SDS011;40884;53.562;9.940;2023-06-19T01:22:38;6.33;;;5.67;;
54983;SDS011;40884;53.562;9.940;2023-06-19T01:23:39;7.27;;;5.87;;
54983;SDS011;40884;53.562;9.940;2023-06-19T01:24:40;6.93;;;6.10;;
54983;SDS011;40884;53.562;9.940;2023-06-19T01:25:41;6.43;;;5.90;;
54983;SDS011;40884;53.562;9.940;2023-06-19T01:26:41;8.40;;;5.63;;
54983;SDS011;40884;53.562;9.940;2023-06-19T01:27:42;8.93;;;6.23;;
54983;SDS011;40884;53.562;9.940;2023-06-19T01:28:42;6.57;;;5.97;;
54983;SDS011;40884;53.562;9.940;2023-06-19T01:29:43;7.63;;;6.00;;
54983;SDS011;40884;53.562;9.940;2023-06-19T01:30:43;6.90;;;5.77;;
54983;SDS011;40884;53.562;9.940;2023-06-19T01:31:46;6.73;;;6.03;;
54983;SDS011;40884;53.562;9.940;2023-06-19T01:32:53;7.50;;;6.10;;
54983;SDS011;40884;53.562;9.940;2023-06-19T01:33:56;8.40;;;6.00;;
54983;SDS011;40884;53.562;9.940;2023-06-19T01:34:57;6.50;;;5.87;;
54983;SDS011;40884;53.562;9.940;2023-06-19T01:35:57;6.13;;;5.53;;
54983;SDS011;40884;53.562;9.940;2023-06-19T01:37:00;6.37;;;5.77;;
54983;SDS011;40884;53.562;9.940;2023-06-19T01:38:01;9.07;;;5.60;;
54983;SDS011;40884;53.562;9.940;2023-06-19T01:39:01;6.10;;;5.53;;
54983;SDS011;40884;53.562;9.940;2023-06-19T01:40:02;6.57;;;5.97;;
54983;SDS011;40884;53.562;9.940;2023-06-19T01:41:05;6.13;;;5.63;;
54983;SDS011;40884;53.562;9.940;2023-06-19T01:42:06;6.73;;;5.77;;
54983;SDS011;40884;53.562;9.940;2023-06-19T01:43:07;6.60;;;6.00;;
54983;SDS011;40884;53.562;9.940;2023-06-19T01:44:08;7.30;;;6.17;;
54983;SDS011;40884;53.562;9.940;2023-06-19T01:45:08;8.50;;;5.70;;
54983;SDS011;40884;53.562;9.940;2023-06-19T01:46:09;6.50;;;6.00;;
54983;SDS011;40884;53.562;9.940;2023-06-19T01:47:10;6.10;;;5.50;;
54983;SDS011;40884;53.562;9.940;2023-06-19T01:48:10;6.47;;;5.93;;
54983;SDS011;40884;53.562;9.940;2023-06-19T01:49:12;6.30;;;5.80;;
54983;SDS011;40884;53.562;9.940;2023-06-19T01:50:12;6.80;;;6.20;;
54983;SDS011;40884;53.562;9.940;2023-06-19T01:51:12;7.03;;;5.80;;
54983;SDS011;40884;53.562;9.940;2023-06-19T01:52:13;6.83;;;6.17;;
54983;SDS011;40884;53.562;9.940;2023-06-19T01:53:13;6.60;;;6.00;;
54983;SDS011;40884;53.562;9.940;2023-06-19T01:54:13;6.30;;;5.70;;
54983;SDS011;40884;53.562;9.940;2023-06-19T01:55:13;6.47;;;5.87;;
54983;SDS011;40884;53.562;9.940;2023-06-19T01:56:14;6.83;;;6.13;;
54983;SDS011;40884;53.562;9.940;2023-06-19T01:57:14;6.80;;;5.77;;
54983;SDS011;40884;53.562;9.940;2023-06-19T01:58:14;7.00;;;6.20;;
54983;SDS011;40884;53.562;9.940;2023-06-19T01:59:14;6.80;;;6.20;;
54983;SDS011;40884;53.562;9.940;2023-06-19T02:00:14;7.40;;;6.17;;
54983;SDS011;40884;53.562;9.940;2023-06-19T02:01:16;7.17;;;6.33;;
54983;SDS011;40884;53.562;9.940;2023-06-19T02:02:16;7.10;;;6.40;;
54983;SDS011;40884;53.562;9.940;2023-06-19T02:03:16;6.80;;;6.20;;
54983;SDS011;40884;53.562;9.940;2023-06-19T02:04:16;6.90;;;6.07;;
54983;SDS011;40884;53.562;9.940;2023-06-19T02:05:16;6.80;;;6.10;;
54983;SDS011;40884;53.562;9.940;2023-06-19T02:06:17;8.27;;;6.70;;
54983;SDS011;40884;53.562;9.940;2023-06-19T02:07:17;7.43;;;6.60;;
54983;SDS011;40884;53.562;9.940;2023-06-19T02:08:17;7.00;;;6.40;;
54983;SDS011;40884;53.562;9.940;2023-06-19T02:09:17;6.90;;;6.20;;
54983;SDS011;40884;53.562;9.940;2023-06-19T02:10:17;8.30;;;6.00;;
54983;SDS011;40884;53.562;9.940;2023-06-19T02:11:17;7.20;;;6.60;;
54983;SDS011;40884;53.562;9.940;2023-06-19T02:12:17;6.90;;;6.30;;
54983;SDS011;40884;53.562;9.940;2023-06-19T02:13:18;7.67;;;6.10;;
54983;SDS011;40884;53.562;9.940;2023-06-19T02:14:18;7.40;;;6.50;;
54983;SDS011;40884;53.562;9.940;2023-06-19T02:15:18;10.40;;;6.30;;
54983;SDS011;40884;53.562;9.940;2023-06-19T02:16:19;7.23;;;6.50;;
54983;SDS011;40884;53.562;9.940;2023-06-19T02:17:19;7.00;;;6.33;;
54983;SDS011;40884;53.562;9.940;2023-06-19T02:18:19;7.37;;;6.30;;
54983;SDS011;40884;53.562;9.940;2023-06-19T02:19:19;6.80;;;6.20;;
54983;SDS011;40884;53.562;9.940;2023-06-19T02:20:19;6.77;;;6.17;;
54983;SDS011;40884;53.562;9.940;2023-06-19T02:21:19;7.37;;;6.63;;
54983;SDS011;40884;53.562;9.940;2023-06-19T02:22:19;8.33;;;6.33;;
54983;SDS011;40884;53.562;9.940;2023-06-19T02:23:20;6.93;;;6.30;;
54983;SDS011;40884;53.562;9.940;2023-06-19T02:24:20;7.30;;;6.60;;
54983;SDS011;40884;53.562;9.940;2023-06-19T02:25:20;6.57;;;5.87;;
54983;SDS011;40884;53.562;9.940;2023-06-19T02:26:20;7.17;;;6.57;;
54983;SDS011;40884;53.562;9.940;2023-06-19T02:27:20;7.00;;;6.40;;
54983;SDS011;40884;53.562;9.940;2023-06-19T02:28:21;7.03;;;6.43;;
54983;SDS011;40884;53.562;9.940;2023-06-19T02:29:21;7.53;;;6.90;;
54983;SDS011;40884;53.562;9.940;2023-06-19T02:30:21;7.00;;;6.30;;
54983;SDS011;40884;53.562;9.940;2023-06-19T02:31:24;7.83;;;6.40;;
54983;SDS011;40884;53.562;9.940;2023-06-19T02:32:25;7.10;;;6.40;;
54983;SDS011;40884;53.562;9.940;2023-06-19T02:33:25;7.50;;;6.80;;
54983;SDS011;40884;53.562;9.940;2023-06-19T02:34:26;8.00;;;6.57;;
54983;SDS011;40884;53.562;9.940;2023-06-19T02:35:26;7.13;;;6.43;;
54983;SDS011;40884;53.562;9.940;2023-06-19T02:36:29;7.83;;;7.13;;
54983;SDS011;40884;53.562;9.940;2023-06-19T02:37:29;7.20;;;6.37;;
54983;SDS011;40884;53.562;9.940;2023-06-19T02:38:30;7.17;;;6.40;;
54983;SDS011;40884;53.562;9.940;2023-06-19T02:39:30;7.00;;;6.40;;
54983;SDS011;40884;53.562;9.940;2023-06-19T02:40:30;7.87;;;6.20;;
54983;SDS011;40884;53.562;9.940;2023-06-19T02:41:30;7.17;;;6.57;;
54983;SDS011;40884;53.562;9.940;2023-06-19T02:42:30;7.50;;;6.80;;
54983;SDS011;40884;53.562;9.940;2023-06-19T02:43:30;6.93;;;6.30;;
54983;SDS011;40884;53.562;9.940;2023-06-19T02:44:30;8.13;;;6.50;;
54983;SDS011;40884;53.562;9.940;2023-06-19T02:45:30;7.63;;;6.70;;
54983;SDS011;40884;53.562;9.940;2023-06-19T02:46:31;7.90;;;6.80;;
54983;SDS011;40884;53.562;9.940;2023-06-19T02:47:31;7.87;;;6.53;;
54983;SDS011;40884;53.562;9.940;2023-06-19T02:48:31;6.90;;;6.30;;
54983;SDS011;40884;53.562;9.940;2023-06-19T02:49:32;8.07;;;6.80;;
54983;SDS011;40884;53.562;9.940;2023-06-19T02:50:32;7.43;;;6.73;;
54983;SDS011;40884;53.562;9.940;2023-06-19T02:51:32;7.50;;;6.80;;
54983;SDS011;40884;53.562;9.940;2023-06-19T02:52:32;7.80;;;7.03;;
54983;SDS011;40884;53.562;9.940;2023-06-19T02:53:33;8.10;;;7.30;;
54983;SDS011;40884;53.562;9.940;2023-06-19T02:54:33;7.30;;;6.60;;
54983;SDS011;40884;53.562;9.940;2023-06-19T02:55:33;7.37;;;6.63;;
54983;SDS011;40884;53.562;9.940;2023-06-19T02:56:33;8.10;;;6.43;;
54983;SDS011;40884;53.562;9.940;2023-06-19T02:57:33;7.13;;;6.53;;
54983;SDS011;40884;53.562;9.940;2023-06-19T02:58:33;7.60;;;7.00;;
54983;SDS011;40884;53.562;9.940;2023-06-19T02:59:34;7.60;;;6.67;;
54983;SDS011;40884;53.562;9.940;2023-06-19T03:00:34;7.53;;;6.83;;
54983;SDS011;40884;53.562;9.940;2023-06-19T03:01:34;8.37;;;7.57;;
54983;SDS011;40884;53.562;9.940;2023-06-19T03:02:34;7.60;;;6.80;;
54983;SDS011;40884;53.562;9.940;2023-06-19T03:03:34;8.03;;;7.23;;
54983;SDS011;40884;53.562;9.940;2023-06-19T03:04:34;7.40;;;6.70;;
54983;SDS011;40884;53.562;9.940;2023-06-19T03:05:34;7.63;;;6.93;;
54983;SDS011;40884;53.562;9.940;2023-06-19T03:06:35;7.57;;;6.80;;
54983;SDS011;40884;53.562;9.940;2023-06-19T03:07:35;7.50;;;6.80;;
54983;SDS011;40884;53.562;9.940;2023-06-19T03:08:36;7.83;;;7.13;;
54983;SDS011;40884;53.562;9.940;2023-06-19T03:09:36;8.57;;;7.10;;
54983;SDS011;40884;53.562;9.940;2023-06-19T03:10:37;8.00;;;7.03;;
54983;SDS011;40884;53.562;9.940;2023-06-19T03:11:40;7.27;;;6.57;;
54983;SDS011;40884;53.562;9.940;2023-06-19T03:12:40;7.63;;;6.93;;
54983;SDS011;40884;53.562;9.940;2023-06-19T03:13:53;7.23;;;6.63;;
54983;SDS011;40884;53.562;9.940;2023-06-19T03:14:53;7.30;;;6.60;;
54983;SDS011;40884;53.562;9.940;2023-06-19T03:15:54;7.70;;;7.07;;
54983;SDS011;40884;53.562;9.940;2023-06-19T03:16:54;8.00;;;7.13;;
54983;SDS011;40884;53.562;9.940;2023-06-19T03:17:54;8.30;;;7.50;;
54983;SDS011;40884;53.562;9.940;2023-06-19T03:18:55;7.93;;;7.10;;
54983;SDS011;40884;53.562;9.940;2023-06-19T03:19:57;8.03;;;7.33;;
54983;SDS011;40884;53.562;9.940;2023-06-19T03:20:58;7.50;;;6.80;;
54983;SDS011;40884;53.562;9.940;2023-06-19T03:21:58;8.17;;;7.30;;
54983;SDS011;40884;53.562;9.940;2023-06-19T03:22:58;12.77;;;7.03;;
54983;SDS011;40884;53.562;9.940;2023-06-19T03:23:59;7.37;;;6.77;;
54983;SDS011;40884;53.562;9.940;2023-06-19T03:25:00;7.67;;;6.87;;
54983;SDS011;40884;53.562;9.940;2023-06-19T03:26:00;7.20;;;6.60;;
54983;SDS011;40884;53.562;9.940;2023-06-19T03:27:01;7.43;;;6.63;;
54983;SDS011;40884;53.562;9.940;2023-06-19T03:28:02;7.67;;;6.97;;
54983;SDS011;40884;53.562;9.940;2023-06-19T03:29:02;8.00;;;7.20;;
54983;SDS011;40884;53.562;9.940;2023-06-19T03:30:10;7.13;;;6.53;;
54983;SDS011;40884;53.562;9.940;2023-06-19T03:31:14;7.57;;;6.77;;
54983;SDS011;40884;53.562;9.940;2023-06-19T03:32:15;7.60;;;6.93;;
54983;SDS011;40884;53.562;9.940;2023-06-19T03:33:15;8.10;;;7.40;;
54983;SDS011;40884;53.562;9.940;2023-06-19T03:34:18;7.47;;;6.77;;
54983;SDS011;40884;53.562;9.940;2023-06-19T03:35:18;8.13;;;7.33;;
54983;SDS011;40884;53.562;9.940;2023-06-19T03:36:18;7.50;;;6.90;;
54983;SDS011;40884;53.562;9.940;2023-06-19T03:37:23;8.17;;;7.37;;
54983;SDS011;40884;53.562;9.940;2023-06-19T03:38:23;8.27;;;6.97;;
54983;SDS011;40884;53.562;9.940;2023-06-19T03:39:24;7.77;;;7.07;;
54983;SDS011;40884;53.562;9.940;2023-06-19T03:40:26;8.37;;;7.50;;
54983;SDS011;40884;53.562;9.940;2023-06-19T03:41:26;7.93;;;7.23;;
54983;SDS011;40884;53.562;9.940;2023-06-19T03:42:28;8.60;;;7.67;;
54983;SDS011;40884;53.562;9.940;2023-06-19T03:43:28;8.23;;;7.47;;
54983;SDS011;40884;53.562;9.940;2023-06-19T03:44:29;8.27;;;7.40;;
54983;SDS011;40884;53.562;9.940;2023-06-19T03:45:29;8.13;;;7.40;;
54983;SDS011;40884;53.562;9.940;2023-06-19T03:46:29;8.13;;;7.10;;
54983;SDS011;40884;53.562;9.940;2023-06-19T03:47:29;8.17;;;7.17;;
54983;SDS011;40884;53.562;9.940;2023-06-19T03:48:29;9.20;;;6.73;;
54983;SDS011;40884;53.562;9.940;2023-06-19T03:49:29;8.30;;;7.60;;
54983;SDS011;40884;53.562;9.940;2023-06-19T03:50:30;7.93;;;7.23;;
54983;SDS011;40884;53.562;9.940;2023-06-19T03:51:30;7.67;;;7.07;;
54983;SDS011;40884;53.562;9.940;2023-06-19T03:52:30;8.00;;;7.30;;
54983;SDS011;40884;53.562;9.940;2023-06-19T03:53:30;7.67;;;6.93;;
54983;SDS011;40884;53.562;9.940;2023-06-19T03:54:30;8.03;;;7.33;;
54983;SDS011;40884;53.562;9.940;2023-06-19T03:55:30;8.33;;;7.47;;
54983;SDS011;40884;53.562;9.940;2023-06-19T03:56:31;8.07;;;7.37;;
54983;SDS011;40884;53.562;9.940;2023-06-19T03:57:31;7.83;;;7.13;;
54983;SDS011;40884;53.562;9.940;2023-06-19T03:58:31;8.40;;;7.60;;
54983;SDS011;40884;53.562;9.940;2023-06-19T03:59:31;8.83;;;8.03;;
54983;SDS011;40884;53.562;9.940;2023-06-19T04:00:32;7.93;;;7.17;;
54983;SDS011;40884;53.562;9.940;2023-06-19T04:01:32;8.03;;;7.23;;
54983;SDS011;40884;53.562;9.940;2023-06-19T04:02:33;8.23;;;7.53;;
54983;SDS011;40884;53.562;9.940;2023-06-19T04:03:33;10.47;;;7.90;;
54983;SDS011;40884;53.562;9.940;2023-06-19T04:04:33;9.83;;;7.97;;
54983;SDS011;40884;53.562;9.940;2023-06-19T04:05:33;7.80;;;7.10;;
54983;SDS011;40884;53.562;9.940;2023-06-19T04:06:34;9.47;;;7.67;;
54983;SDS011;40884;53.562;9.940;2023-06-19T04:07:34;7.90;;;7.13;;
54983;SDS011;40884;53.562;9.940;2023-06-19T04:08:34;8.30;;;7.53;;
54983;SDS011;40884;53.562;9.940;2023-06-19T04:09:34;7.63;;;6.90;;
54983;SDS011;40884;53.562;9.940;2023-06-19T04:10:35;10.53;;;8.33;;
54983;SDS011;40884;53.562;9.940;2023-06-19T04:11:35;9.20;;;7.43;;
54983;SDS011;40884;53.562;9.940;2023-06-19T04:12:36;8.53;;;7.53;;
54983;SDS011;40884;53.562;9.940;2023-06-19T04:13:38;8.23;;;7.57;;
54983;SDS011;40884;53.562;9.940;2023-06-19T04:14:39;7.90;;;7.10;;
54983;SDS011;40884;53.562;9.940;2023-06-19T04:15:39;8.70;;;7.10;;
54983;SDS011;40884;53.562;9.940;2023-06-19T04:16:39;7.83;;;7.13;;
54983;SDS011;40884;53.562;9.940;2023-06-19T04:17:40;8.27;;;7.47;;
54983;SDS011;40884;53.562;9.940;2023-06-19T04:18:40;7.90;;;7.10;;
54983;SDS011;40884;53.562;9.940;2023-06-19T04:19:40;10.13;;;7.73;;
54983;SDS011;40884;53.562;9.940;2023-06-19T04:20:40;8.17;;;7.47;;
54983;SDS011;40884;53.562;9.940;2023-06-19T04:21:40;8.83;;;8.03;;
54983;SDS011;40884;53.562;9.940;2023-06-19T04:22:40;8.33;;;7.60;;
54983;SDS011;40884;53.562;9.940;2023-06-19T04:23:41;7.60;;;7.00;;
54983;SDS011;40884;53.562;9.940;2023-06-19T04:24:41;8.90;;;8.10;;
54983;SDS011;40884;53.562;9.940;2023-06-19T04:25:41;8.53;;;7.40;;
54983;SDS011;40884;53.562;9.940;2023-06-19T04:26:41;8.50;;;7.77;;
54983;SDS011;40884;53.562;9.940;2023-06-19T04:27:41;8.20;;;7.50;;
54983;SDS011;40884;53.562;9.940;2023-06-19T04:28:41;8.57;;;7.77;;
54983;SDS011;40884;53.562;9.940;2023-06-19T04:29:41;9.93;;;7.90;;
54983;SDS011;40884;53.562;9.940;2023-06-19T04:30:41;8.83;;;8.03;;
54983;SDS011;40884;53.562;9.940;2023-06-19T04:31:44;8.40;;;7.60;;
54983;SDS011;40884;53.562;9.940;2023-06-19T04:32:45;8.70;;;7.67;;
54983;SDS011;40884;53.562;9.940;2023-06-19T04:33:45;8.50;;;7.67;;
54983;SDS011;40884;53.562;9.940;2023-06-19T04:34:45;8.33;;;7.63;;
54983;SDS011;40884;53.562;9.940;2023-06-19T04:35:45;8.80;;;8.00;;
54983;SDS011;40884;53.562;9.940;2023-06-19T04:36:46;8.50;;;7.70;;
54983;SDS011;40884;53.562;9.940;2023-06-19T04:37:46;8.10;;;7.30;;
54983;SDS011;40884;53.562;9.940;2023-06-19T04:38:46;8.53;;;7.63;;
54983;SDS011;40884;53.562;9.940;2023-06-19T04:39:46;8.80;;;7.97;;
54983;SDS011;40884;53.562;9.940;2023-06-19T04:40:47;8.20;;;7.40;;
54983;SDS011;40884;53.562;9.940;2023-06-19T04:41:47;10.07;;;7.97;;
54983;SDS011;40884;53.562;9.940;2023-06-19T04:42:47;8.83;;;7.70;;
54983;SDS011;40884;53.562;9.940;2023-06-19T04:43:47;9.67;;;7.50;;
54983;SDS011;40884;53.562;9.940;2023-06-19T04:44:47;9.20;;;8.13;;
54983;SDS011;40884;53.562;9.940;2023-06-19T04:45:47;8.63;;;7.83;;
54983;SDS011;40884;53.562;9.940;2023-06-19T04:46:48;8.47;;;7.67;;
54983;SDS011;40884;53.562;9.940;2023-06-19T04:47:48;9.07;;;8.23;;
54983;SDS011;40884;53.562;9.940;2023-06-19T04:48:48;8.20;;;7.50;;
54983;SDS011;40884;53.562;9.940;2023-06-19T04:49:48;12.17;;;8.40;;
54983;SDS011;40884;53.562;9.940;2023-06-19T04:50:48;8.80;;;7.90;;
54983;SDS011;40884;53.562;9.940;2023-06-19T04:51:48;9.53;;;8.53;;
54983;SDS011;40884;53.562;9.940;2023-06-19T04:52:48;9.03;;;8.23;;
54983;SDS011;40884;53.562;9.940;2023-06-19T04:53:48;8.80;;;8.00;;
54983;SDS011;40884;53.562;9.940;2023-06-19T04:54:49;9.57;;;8.63;;
54983;SDS011;40884;53.562;9.940;2023-06-19T04:55:49;8.40;;;7.70;;
54983;SDS011;40884;53.562;9.940;2023-06-19T04:56:49;11.93;;;8.17;;
54983;SDS011;40884;53.562;9.940;2023-06-19T04:57:49;9.27;;;7.80;;
54983;SDS011;40884;53.562;9.940;2023-06-19T04:58:49;9.03;;;8.10;;
54983;SDS011;40884;53.562;9.940;2023-06-19T04:59:49;9.53;;;7.83;;
54983;SDS011;40884;53.562;9.940;2023-06-19T05:00:49;9.33;;;8.43;;
54983;SDS011;40884;53.562;9.940;2023-06-19T05:01:50;8.40;;;7.70;;
54983;SDS011;40884;53.562;9.940;2023-06-19T05:02:50;9.20;;;8.40;;
54983;SDS011;40884;53.562;9.940;2023-06-19T05:03:50;9.20;;;8.27;;
54983;SDS011;40884;53.562;9.940;2023-06-19T05:04:50;9.20;;;8.30;;
54983;SDS011;40884;53.562;9.940;2023-06-19T05:05:50;9.57;;;8.63;;
54983;SDS011;40884;53.562;9.940;2023-06-19T05:06:50;9.43;;;8.23;;
54983;SDS011;40884;53.562;9.940;2023-06-19T05:07:50;9.47;;;8.57;;
54983;SDS011;40884;53.562;9.940;2023-06-19T05:08:51;9.87;;;8.07;;
54983;SDS011;40884;53.562;9.940;2023-06-19T05:09:51;9.03;;;8.20;;
54983;SDS011;40884;53.562;9.940;2023-06-19T05:10:51;9.00;;;8.20;;
54983;SDS011;40884;53.562;9.940;2023-06-19T05:11:51;10.23;;;8.37;;
54983;SDS011;40884;53.562;9.940;2023-06-19T05:12:51;9.90;;;8.90;;
54983;SDS011;40884;53.562;9.940;2023-06-19T05:13:51;8.83;;;7.90;;
54983;SDS011;40884;53.562;9.940;2023-06-19T05:14:51;8.87;;;8.07;;
54983;SDS011;40884;53.562;9.940;2023-06-19T05:15:51;8.90;;;8.10;;
54983;SDS011;40884;53.562;9.940;2023-06-19T05:16:52;10.50;;;8.33;;
54983;SDS011;40884;53.562;9.940;2023-06-19T05:17:53;9.47;;;8.27;;
54983;SDS011;40884;53.562;9.940;2023-06-19T05:18:53;8.57;;;7.80;;
54983;SDS011;40884;53.562;9.940;2023-06-19T05:19:53;9.87;;;8.50;;
54983;SDS011;40884;53.562;9.940;2023-06-19T05:20:53;9.30;;;8.50;;
54983;SDS011;40884;53.562;9.940;2023-06-19T05:21:53;9.67;;;8.20;;
54983;SDS011;40884;53.562;9.940;2023-06-19T05:22:53;10.90;;;7.93;;
54983;SDS011;40884;53.562;9.940;2023-06-19T05:23:53;10.17;;;8.67;;
54983;SDS011;40884;53.562;9.940;2023-06-19T05:24:53;10.90;;;8.63;;
54983;SDS011;40884;53.562;9.940;2023-06-19T05:25:54;10.33;;;8.17;;
54983;SDS011;40884;53.562;9.940;2023-06-19T05:26:54;8.83;;;8.03;;
54983;SDS011;40884;53.562;9.940;2023-06-19T05:27:54;10.97;;;8.50;;
54983;SDS011;40884;53.562;9.940;2023-06-19T05:28:54;9.60;;;8.60;;
54983;SDS011;40884;53.562;9.940;2023-06-19T05:29:54;15.70;;;9.43;;
54983;SDS011;40884;53.562;9.940;2023-06-19T05:30:54;16.80;;;8.27;;
54983;SDS011;40884;53.562;9.940;2023-06-19T05:31:54;13.87;;;8.77;;
54983;SDS011;40884;53.562;9.940;2023-06-19T05:32:55;13.03;;;8.43;;
54983;SDS011;40884;53.562;9.940;2023-06-19T05:33:55;9.33;;;7.80;;
54983;SDS011;40884;53.562;9.940;2023-06-19T05:34:55;14.37;;;8.70;;
54983;SDS011;40884;53.562;9.940;2023-06-19T05:35:55;15.63;;;8.80;;
54983;SDS011;40884;53.562;9.940;2023-06-19T05:36:55;11.53;;;8.00;;
54983;SDS011;40884;53.562;9.940;2023-06-19T05:37:55;11.40;;;8.57;;
54983;SDS011;40884;53.562;9.940;2023-06-19T05:38:55;10.63;;;8.10;;
54983;SDS011;40884;53.562;9.940;2023-06-19T05:39:56;12.90;;;8.93;;
54983;SDS011;40884;53.562;9.940;2023-06-19T05:40:56;12.93;;;8.30;;
54983;SDS011;40884;53.562;9.940;2023-06-19T05:41:56;11.23;;;8.93;;
54983;SDS011;40884;53.562;9.940;2023-06-19T05:42:56;12.00;;;8.70;;
54983;SDS011;40884;53.562;9.940;2023-06-19T05:43:56;13.10;;;8.77;;
54983;SDS011;40884;53.562;9.940;2023-06-19T05:44:57;10.83;;;8.53;;
54983;SDS011;40884;53.562;9.940;2023-06-19T05:45:57;9.83;;;8.53;;
54983;SDS011;40884;53.562;9.940;2023-06-19T05:46:57;13.63;;;8.40;;
54983;SDS011;40884;53.562;9.940;2023-06-19T05:47:57;10.00;;;9.00;;
54983;SDS011;40884;53.562;9.940;2023-06-19T05:48:57;10.47;;;8.53;;
54983;SDS011;40884;53.562;9.940;2023-06-19T05:49:57;12.90;;;8.60;;
54983;SDS011;40884;53.562;9.940;2023-06-19T05:50:57;9.40;;;8.50;;
54983;SDS011;40884;53.562;9.940;2023-06-19T05:51:57;10.03;;;8.27;;
54983;SDS011;40884;53.562;9.940;2023-06-19T05:52:58;10.37;;;8.37;;
54983;SDS011;40884;53.562;9.940;2023-06-19T05:53:58;10.63;;;9.20;;
54983;SDS011;40884;53.562;9.940;2023-06-19T05:54:58;9.87;;;8.97;;
54983;SDS011;40884;53.562;9.940;2023-06-19T05:55:58;9.63;;;8.73;;
54983;SDS011;40884;53.562;9.940;2023-06-19T05:56:58;9.60;;;8.70;;
54983;SDS011;40884;53.562;9.940;2023-06-19T05:57:58;9.90;;;9.00;;
54983;SDS011;40884;53.562;9.940;2023-06-19T05:59:01;8.97;;;8.17;;
54983;SDS011;40884;53.562;9.940;2023-06-19T06:00:02;9.23;;;8.33;;
54983;SDS011;40884;53.562;9.940;2023-06-19T06:01:02;10.40;;;9.00;;
54983;SDS011;40884;53.562;9.940;2023-06-19T06:02:02;9.00;;;8.10;;
54983;SDS011;40884;53.562;9.940;2023-06-19T06:03:02;10.13;;;8.30;;
54983;SDS011;40884;53.562;9.940;2023-06-19T06:04:02;9.60;;;8.70;;
54983;SDS011;40884;53.562;9.940;2023-06-19T06:05:03;9.93;;;8.23;;